sensor_id;sensor_type;location;lat;lon;timestamp;P1;durP1;ratioP1;P2;durP2;ratioP2
12145;SDS011;6136;47.032;15.398;2022-10-04T00:02:26;4.63;;;3.90;;
12145;SDS011;6136;47.032;15.398;2022-10-04T00:05:03;6.37;;;3.80;;
12145;SDS011;6136;47.032;15.398;2022-10-04T00:07:35;5.70;;;3.70;;
12145;SDS011;6136;47.032;15.398;2022-10-04T00:10:14;8.13;;;3.47;;
12145;SDS011;6136;47.032;15.398;2022-10-04T00:12:47;7.20;;;3.90;;
12145;SDS011;6136;47.032;15.398;2022-10-04T00:15:18;4.60;;;3.33;;
12145;SDS011;6136;47.032;15.398;2022-10-04T00:18:04;6.17;;;3.73;;
12145;SDS011;6136;47.032;15.398;2022-10-04T00:20:57;5.33;;;3.60;;
12145;SDS011;6136;47.032;15.398;2022-10-04T00:23:29;3.97;;;3.00;;
12145;SDS011;6136;47.032;15.398;2022-10-04T00:26:10;4.53;;;3.47;;
12145;SDS011;6136;47.032;15.398;2022-10-04T00:28:43;4.80;;;3.57;;
12145;SDS011;6136;47.032;15.398;2022-10-04T00:31:20;6.30;;;3.60;;
12145;SDS011;6136;47.032;15.398;2022-10-04T00:33:54;5.47;;;4.00;;
12145;SDS011;6136;47.032;15.398;2022-10-04T00:36:35;4.60;;;3.30;;
12145;SDS011;6136;47.032;15.398;2022-10-04T00:39:14;4.47;;;2.97;;
12145;SDS011;6136;47.032;15.398;2022-10-04T00:41:52;6.70;;;3.47;;
12145;SDS011;6136;47.032;15.398;2022-10-04T00:44:29;3.93;;;3.40;;
12145;SDS011;6136;47.032;15.398;2022-10-04T00:47:11;5.67;;;3.20;;
12145;SDS011;6136;47.032;15.398;2022-10-04T00:49:46;8.37;;;3.67;;
12145;SDS011;6136;47.032;15.398;2022-10-04T00:52:23;4.20;;;3.50;;
12145;SDS011;6136;47.032;15.398;2022-10-04T00:54:55;5.27;;;3.00;;
12145;SDS011;6136;47.032;15.398;2022-10-04T00:57:27;6.43;;;2.90;;
12145;SDS011;6136;47.032;15.398;2022-10-04T00:59:59;4.90;;;2.87;;
12145;SDS011;6136;47.032;15.398;2022-10-04T01:02:32;4.80;;;3.47;;
12145;SDS011;6136;47.032;15.398;2022-10-04T01:05:06;4.10;;;2.80;;
12145;SDS011;6136;47.032;15.398;2022-10-04T01:07:40;4.50;;;3.23;;
12145;SDS011;6136;47.032;15.398;2022-10-04T01:10:13;3.13;;;2.70;;
12145;SDS011;6136;47.032;15.398;2022-10-04T01:12:48;3.70;;;3.13;;
12145;SDS011;6136;47.032;15.398;2022-10-04T01:15:23;3.73;;;3.00;;
12145;SDS011;6136;47.032;15.398;2022-10-04T01:18:04;4.67;;;3.30;;
12145;SDS011;6136;47.032;15.398;2022-10-04T01:20:38;3.77;;;3.30;;
12145;SDS011;6136;47.032;15.398;2022-10-04T01:23:10;5.20;;;3.50;;
12145;SDS011;6136;47.032;15.398;2022-10-04T01:25:50;6.30;;;3.20;;
12145;SDS011;6136;47.032;15.398;2022-10-04T01:28:18;5.07;;;3.67;;
12145;SDS011;6136;47.032;15.398;2022-10-04T01:30:47;6.67;;;3.57;;
12145;SDS011;6136;47.032;15.398;2022-10-04T01:33:15;7.60;;;3.00;;
12145;SDS011;6136;47.032;15.398;2022-10-04T01:35:44;3.67;;;3.10;;
12145;SDS011;6136;47.032;15.398;2022-10-04T01:38:15;3.33;;;3.03;;
12145;SDS011;6136;47.032;15.398;2022-10-04T01:40:44;3.67;;;3.30;;
12145;SDS011;6136;47.032;15.398;2022-10-04T01:43:19;6.37;;;3.10;;
12145;SDS011;6136;47.032;15.398;2022-10-04T01:45:55;6.33;;;3.20;;
12145;SDS011;6136;47.032;15.398;2022-10-04T01:48:28;4.33;;;3.43;;
12145;SDS011;6136;47.032;15.398;2022-10-04T01:51:03;3.77;;;3.27;;
12145;SDS011;6136;47.032;15.398;2022-10-04T01:53:40;3.77;;;3.03;;
12145;SDS011;6136;47.032;15.398;2022-10-04T01:56:15;4.97;;;3.67;;
12145;SDS011;6136;47.032;15.398;2022-10-04T01:58:47;4.30;;;3.30;;
12145;SDS011;6136;47.032;15.398;2022-10-04T02:01:20;4.13;;;3.10;;
12145;SDS011;6136;47.032;15.398;2022-10-04T02:03:56;5.70;;;3.07;;
12145;SDS011;6136;47.032;15.398;2022-10-04T02:06:29;6.70;;;3.70;;
12145;SDS011;6136;47.032;15.398;2022-10-04T02:09:08;5.50;;;3.67;;
12145;SDS011;6136;47.032;15.398;2022-10-04T02:11:39;5.27;;;3.40;;
12145;SDS011;6136;47.032;15.398;2022-10-04T02:14:10;4.63;;;3.53;;
12145;SDS011;6136;47.032;15.398;2022-10-04T02:16:42;5.40;;;4.00;;
12145;SDS011;6136;47.032;15.398;2022-10-04T02:19:13;4.53;;;3.40;;
12145;SDS011;6136;47.032;15.398;2022-10-04T02:21:42;3.63;;;3.23;;
12145;SDS011;6136;47.032;15.398;2022-10-04T02:24:12;4.00;;;3.50;;
12145;SDS011;6136;47.032;15.398;2022-10-04T02:26:41;6.37;;;3.97;;
12145;SDS011;6136;47.032;15.398;2022-10-04T02:29:15;6.90;;;4.47;;
12145;SDS011;6136;47.032;15.398;2022-10-04T02:31:44;6.33;;;3.90;;
12145;SDS011;6136;47.032;15.398;2022-10-04T02:34:32;4.63;;;3.47;;
12145;SDS011;6136;47.032;15.398;2022-10-04T02:37:01;7.13;;;4.07;;
12145;SDS011;6136;47.032;15.398;2022-10-04T02:39:32;5.27;;;3.70;;
12145;SDS011;6136;47.032;15.398;2022-10-04T02:42:08;5.30;;;4.47;;
12145;SDS011;6136;47.032;15.398;2022-10-04T02:44:42;4.50;;;4.10;;
12145;SDS011;6136;47.032;15.398;2022-10-04T02:47:15;7.43;;;3.77;;
12145;SDS011;6136;47.032;15.398;2022-10-04T02:49:48;5.90;;;3.73;;
12145;SDS011;6136;47.032;15.398;2022-10-04T02:52:19;5.70;;;4.17;;
12145;SDS011;6136;47.032;15.398;2022-10-04T02:54:55;4.10;;;3.70;;
12145;SDS011;6136;47.032;15.398;2022-10-04T02:57:29;4.67;;;3.83;;
12145;SDS011;6136;47.032;15.398;2022-10-04T03:00:09;4.00;;;3.63;;
12145;SDS011;6136;47.032;15.398;2022-10-04T03:05:51;6.53;;;4.20;;
12145;SDS011;6136;47.032;15.398;2022-10-04T03:08:22;7.47;;;3.93;;
12145;SDS011;6136;47.032;15.398;2022-10-04T03:10:52;6.63;;;3.70;;
12145;SDS011;6136;47.032;15.398;2022-10-04T03:13:21;4.63;;;3.97;;
12145;SDS011;6136;47.032;15.398;2022-10-04T03:15:50;4.33;;;3.23;;
12145;SDS011;6136;47.032;15.398;2022-10-04T03:18:18;5.73;;;3.60;;
12145;SDS011;6136;47.032;15.398;2022-10-04T03:20:47;6.93;;;3.93;;
12145;SDS011;6136;47.032;15.398;2022-10-04T03:23:16;7.17;;;3.63;;
12145;SDS011;6136;47.032;15.398;2022-10-04T03:25:48;5.17;;;3.70;;
12145;SDS011;6136;47.032;15.398;2022-10-04T03:28:20;8.17;;;4.50;;
12145;SDS011;6136;47.032;15.398;2022-10-04T03:30:49;8.73;;;4.57;;
12145;SDS011;6136;47.032;15.398;2022-10-04T03:33:18;8.20;;;4.73;;
12145;SDS011;6136;47.032;15.398;2022-10-04T03:35:49;7.73;;;4.57;;
12145;SDS011;6136;47.032;15.398;2022-10-04T03:38:20;9.83;;;4.37;;
12145;SDS011;6136;47.032;15.398;2022-10-04T03:40:52;6.80;;;5.23;;
12145;SDS011;6136;47.032;15.398;2022-10-04T03:43:25;7.30;;;4.83;;
12145;SDS011;6136;47.032;15.398;2022-10-04T03:45:57;6.47;;;5.33;;
12145;SDS011;6136;47.032;15.398;2022-10-04T03:48:31;11.10;;;7.33;;
12145;SDS011;6136;47.032;15.398;2022-10-04T03:51:03;10.00;;;6.93;;
12145;SDS011;6136;47.032;15.398;2022-10-04T03:53:33;9.20;;;6.27;;
12145;SDS011;6136;47.032;15.398;2022-10-04T03:56:10;8.00;;;5.47;;
12145;SDS011;6136;47.032;15.398;2022-10-04T03:58:41;9.03;;;5.70;;
12145;SDS011;6136;47.032;15.398;2022-10-04T04:01:11;9.63;;;5.50;;
12145;SDS011;6136;47.032;15.398;2022-10-04T04:03:50;10.67;;;5.33;;
12145;SDS011;6136;47.032;15.398;2022-10-04T04:06:24;7.77;;;5.63;;
12145;SDS011;6136;47.032;15.398;2022-10-04T04:09:00;6.17;;;4.63;;
12145;SDS011;6136;47.032;15.398;2022-10-04T04:11:32;6.40;;;4.67;;
12145;SDS011;6136;47.032;15.398;2022-10-04T04:14:02;6.40;;;4.87;;
12145;SDS011;6136;47.032;15.398;2022-10-04T04:16:36;5.77;;;4.70;;
12145;SDS011;6136;47.032;15.398;2022-10-04T04:19:11;8.73;;;5.20;;
12145;SDS011;6136;47.032;15.398;2022-10-04T04:21:42;7.53;;;5.53;;
12145;SDS011;6136;47.032;15.398;2022-10-04T04:24:12;6.07;;;5.00;;
12145;SDS011;6136;47.032;15.398;2022-10-04T04:26:49;16.93;;;5.73;;
12145;SDS011;6136;47.032;15.398;2022-10-04T04:29:22;9.77;;;5.13;;
12145;SDS011;6136;47.032;15.398;2022-10-04T04:31:57;7.57;;;4.43;;
12145;SDS011;6136;47.032;15.398;2022-10-04T04:34:30;8.13;;;5.40;;
12145;SDS011;6136;47.032;15.398;2022-10-04T04:37:01;7.37;;;5.70;;
12145;SDS011;6136;47.032;15.398;2022-10-04T04:39:31;8.57;;;5.57;;
12145;SDS011;6136;47.032;15.398;2022-10-04T04:42:04;9.27;;;5.67;;
12145;SDS011;6136;47.032;15.398;2022-10-04T04:44:45;9.33;;;6.20;;
12145;SDS011;6136;47.032;15.398;2022-10-04T04:47:25;11.93;;;5.40;;
12145;SDS011;6136;47.032;15.398;2022-10-04T04:49:56;8.67;;;6.10;;
12145;SDS011;6136;47.032;15.398;2022-10-04T04:52:28;8.23;;;6.20;;
12145;SDS011;6136;47.032;15.398;2022-10-04T04:54:59;7.13;;;5.60;;
12145;SDS011;6136;47.032;15.398;2022-10-04T04:57:27;9.83;;;6.47;;
12145;SDS011;6136;47.032;15.398;2022-10-04T04:59:57;7.73;;;6.03;;
12145;SDS011;6136;47.032;15.398;2022-10-04T05:02:29;6.77;;;5.37;;
12145;SDS011;6136;47.032;15.398;2022-10-04T05:05:14;6.80;;;4.80;;
12145;SDS011;6136;47.032;15.398;2022-10-04T05:07:44;6.33;;;5.40;;
12145;SDS011;6136;47.032;15.398;2022-10-04T05:10:20;7.23;;;5.23;;
12145;SDS011;6136;47.032;15.398;2022-10-04T05:12:55;7.90;;;5.33;;
12145;SDS011;6136;47.032;15.398;2022-10-04T05:15:27;6.93;;;4.50;;
12145;SDS011;6136;47.032;15.398;2022-10-04T05:18:00;5.73;;;4.77;;
12145;SDS011;6136;47.032;15.398;2022-10-04T05:20:29;6.60;;;5.10;;
12145;SDS011;6136;47.032;15.398;2022-10-04T05:22:59;7.73;;;4.83;;
12145;SDS011;6136;47.032;15.398;2022-10-04T05:25:28;7.80;;;4.40;;
12145;SDS011;6136;47.032;15.398;2022-10-04T05:28:00;6.73;;;4.63;;
12145;SDS011;6136;47.032;15.398;2022-10-04T05:30:34;4.73;;;4.23;;
12145;SDS011;6136;47.032;15.398;2022-10-04T05:33:12;4.17;;;3.30;;
12145;SDS011;6136;47.032;15.398;2022-10-04T05:35:49;4.87;;;3.70;;
12145;SDS011;6136;47.032;15.398;2022-10-04T05:38:45;4.97;;;3.83;;
12145;SDS011;6136;47.032;15.398;2022-10-04T05:41:23;4.10;;;3.63;;
12145;SDS011;6136;47.032;15.398;2022-10-04T05:43:59;6.30;;;4.30;;
12145;SDS011;6136;47.032;15.398;2022-10-04T05:46:29;7.27;;;3.83;;
12145;SDS011;6136;47.032;15.398;2022-10-04T05:49:01;4.73;;;3.60;;
12145;SDS011;6136;47.032;15.398;2022-10-04T05:51:47;4.17;;;3.40;;
12145;SDS011;6136;47.032;15.398;2022-10-04T05:54:21;10.93;;;4.70;;
12145;SDS011;6136;47.032;15.398;2022-10-04T05:56:55;7.97;;;4.07;;
12145;SDS011;6136;47.032;15.398;2022-10-04T05:59:35;7.53;;;3.80;;
12145;SDS011;6136;47.032;15.398;2022-10-04T06:02:55;6.57;;;3.83;;
12145;SDS011;6136;47.032;15.398;2022-10-04T06:05:40;5.43;;;4.20;;
12145;SDS011;6136;47.032;15.398;2022-10-04T06:08:18;5.27;;;3.60;;
12145;SDS011;6136;47.032;15.398;2022-10-04T06:10:58;8.40;;;4.37;;
12145;SDS011;6136;47.032;15.398;2022-10-04T06:13:43;7.13;;;4.63;;
12145;SDS011;6136;47.032;15.398;2022-10-04T06:16:26;11.53;;;4.70;;
12145;SDS011;6136;47.032;15.398;2022-10-04T06:19:18;6.67;;;4.47;;
12145;SDS011;6136;47.032;15.398;2022-10-04T06:22:04;9.23;;;4.33;;
12145;SDS011;6136;47.032;15.398;2022-10-04T06:24:43;8.30;;;4.70;;
12145;SDS011;6136;47.032;15.398;2022-10-04T06:27:16;5.20;;;4.43;;
12145;SDS011;6136;47.032;15.398;2022-10-04T06:29:50;12.13;;;4.43;;
12145;SDS011;6136;47.032;15.398;2022-10-04T06:32:35;14.07;;;5.30;;
12145;SDS011;6136;47.032;15.398;2022-10-04T06:35:19;9.83;;;6.57;;
12145;SDS011;6136;47.032;15.398;2022-10-04T06:38:18;7.50;;;5.10;;
12145;SDS011;6136;47.032;15.398;2022-10-04T06:44:12;8.53;;;4.57;;
12145;SDS011;6136;47.032;15.398;2022-10-04T06:46:56;12.07;;;4.70;;
12145;SDS011;6136;47.032;15.398;2022-10-04T06:49:35;13.60;;;4.23;;
12145;SDS011;6136;47.032;15.398;2022-10-04T06:52:17;7.93;;;4.03;;
12145;SDS011;6136;47.032;15.398;2022-10-04T06:58:04;8.97;;;4.30;;
12145;SDS011;6136;47.032;15.398;2022-10-04T07:00:47;7.20;;;3.97;;
12145;SDS011;6136;47.032;15.398;2022-10-04T07:03:20;9.83;;;3.93;;
12145;SDS011;6136;47.032;15.398;2022-10-04T07:05:53;7.10;;;4.20;;
12145;SDS011;6136;47.032;15.398;2022-10-04T07:08:27;4.50;;;3.43;;
12145;SDS011;6136;47.032;15.398;2022-10-04T07:11:04;5.97;;;3.70;;
12145;SDS011;6136;47.032;15.398;2022-10-04T07:13:44;4.97;;;4.20;;
12145;SDS011;6136;47.032;15.398;2022-10-04T07:16:23;4.70;;;3.23;;
12145;SDS011;6136;47.032;15.398;2022-10-04T07:18:58;6.43;;;3.40;;
12145;SDS011;6136;47.032;15.398;2022-10-04T07:21:36;5.70;;;3.17;;
12145;SDS011;6136;47.032;15.398;2022-10-04T07:24:17;3.43;;;3.13;;
12145;SDS011;6136;47.032;15.398;2022-10-04T07:26:51;6.77;;;3.60;;
12145;SDS011;6136;47.032;15.398;2022-10-04T07:29:22;9.33;;;4.00;;
12145;SDS011;6136;47.032;15.398;2022-10-04T07:32:02;6.13;;;3.70;;
12145;SDS011;6136;47.032;15.398;2022-10-04T07:34:35;7.85;;;3.60;;
12145;SDS011;6136;47.032;15.398;2022-10-04T07:37:11;9.05;;;3.90;;
12145;SDS011;6136;47.032;15.398;2022-10-04T07:39:44;4.30;;;3.50;;
12145;SDS011;6136;47.032;15.398;2022-10-04T07:42:20;3.88;;;3.33;;
12145;SDS011;6136;47.032;15.398;2022-10-04T07:45:02;6.78;;;4.07;;
12145;SDS011;6136;47.032;15.398;2022-10-04T07:47:37;7.57;;;3.67;;
12145;SDS011;6136;47.032;15.398;2022-10-04T07:53:03;8.02;;;4.38;;
12145;SDS011;6136;47.032;15.398;2022-10-04T07:55:39;6.15;;;3.53;;
12145;SDS011;6136;47.032;15.398;2022-10-04T08:01:15;6.40;;;4.00;;
12145;SDS011;6136;47.032;15.398;2022-10-04T08:04:09;7.78;;;4.15;;
12145;SDS011;6136;47.032;15.398;2022-10-04T08:06:49;5.38;;;4.00;;
12145;SDS011;6136;47.032;15.398;2022-10-04T08:09:24;4.18;;;3.63;;
12145;SDS011;6136;47.032;15.398;2022-10-04T08:12:04;8.00;;;3.33;;
12145;SDS011;6136;47.032;15.398;2022-10-04T08:14:51;6.85;;;3.72;;
12145;SDS011;6136;47.032;15.398;2022-10-04T08:17:31;6.18;;;3.33;;
12145;SDS011;6136;47.032;15.398;2022-10-04T08:20:24;4.18;;;2.83;;
12145;SDS011;6136;47.032;15.398;2022-10-04T08:23:18;4.15;;;2.88;;
12145;SDS011;6136;47.032;15.398;2022-10-04T08:26:11;5.40;;;3.20;;
12145;SDS011;6136;47.032;15.398;2022-10-04T08:29:29;5.97;;;3.22;;
12145;SDS011;6136;47.032;15.398;2022-10-04T08:32:29;9.68;;;3.72;;
12145;SDS011;6136;47.032;15.398;2022-10-04T08:35:14;5.22;;;3.47;;
12145;SDS011;6136;47.032;15.398;2022-10-04T08:38:02;10.07;;;3.67;;
12145;SDS011;6136;47.032;15.398;2022-10-04T08:40:49;5.70;;;3.80;;
12145;SDS011;6136;47.032;15.398;2022-10-04T08:46:57;5.15;;;3.75;;
12145;SDS011;6136;47.032;15.398;2022-10-04T08:53:21;5.57;;;2.97;;
12145;SDS011;6136;47.032;15.398;2022-10-04T08:56:14;5.50;;;3.60;;
12145;SDS011;6136;47.032;15.398;2022-10-04T09:05:24;3.35;;;2.80;;
12145;SDS011;6136;47.032;15.398;2022-10-04T09:08:28;2.40;;;2.17;;
12145;SDS011;6136;47.032;15.398;2022-10-04T09:11:19;3.67;;;2.53;;
12145;SDS011;6136;47.032;15.398;2022-10-04T09:14:03;4.43;;;3.20;;
12145;SDS011;6136;47.032;15.398;2022-10-04T09:16:51;3.08;;;2.25;;
12145;SDS011;6136;47.032;15.398;2022-10-04T09:19:32;9.10;;;2.70;;
12145;SDS011;6136;47.032;15.398;2022-10-04T09:22:16;3.97;;;2.60;;
12145;SDS011;6136;47.032;15.398;2022-10-04T09:24:50;4.10;;;1.92;;
12145;SDS011;6136;47.032;15.398;2022-10-04T09:27:49;2.22;;;2.00;;
12145;SDS011;6136;47.032;15.398;2022-10-04T09:30:42;3.08;;;1.73;;
12145;SDS011;6136;47.032;15.398;2022-10-04T09:33:35;1.70;;;1.60;;
12145;SDS011;6136;47.032;15.398;2022-10-04T09:36:26;2.25;;;1.75;;
12145;SDS011;6136;47.032;15.398;2022-10-04T09:42:17;1.65;;;1.55;;
12145;SDS011;6136;47.032;15.398;2022-10-04T09:51:03;2.05;;;1.67;;
12145;SDS011;6136;47.032;15.398;2022-10-04T09:54:00;2.05;;;1.60;;
12145;SDS011;6136;47.032;15.398;2022-10-04T09:56:56;1.40;;;1.30;;
12145;SDS011;6136;47.032;15.398;2022-10-04T10:03:11;3.42;;;1.70;;
12145;SDS011;6136;47.032;15.398;2022-10-04T10:09:10;2.38;;;1.88;;
12145;SDS011;6136;47.032;15.398;2022-10-04T10:11:50;2.08;;;1.40;;
12145;SDS011;6136;47.032;15.398;2022-10-04T10:14:53;1.95;;;1.60;;
12145;SDS011;6136;47.032;15.398;2022-10-04T10:17:31;1.65;;;1.55;;
12145;SDS011;6136;47.032;15.398;2022-10-04T10:20:23;1.35;;;1.27;;
12145;SDS011;6136;47.032;15.398;2022-10-04T10:23:18;1.63;;;1.52;;
12145;SDS011;6136;47.032;15.398;2022-10-04T10:26:13;3.22;;;1.80;;
12145;SDS011;6136;47.032;15.398;2022-10-04T10:35:22;1.50;;;1.40;;
12145;SDS011;6136;47.032;15.398;2022-10-04T10:38:06;1.77;;;1.67;;
12145;SDS011;6136;47.032;15.398;2022-10-04T10:40:58;1.63;;;1.52;;
12145;SDS011;6136;47.032;15.398;2022-10-04T10:43:47;4.85;;;1.70;;
12145;SDS011;6136;47.032;15.398;2022-10-04T10:46:34;1.80;;;1.70;;
12145;SDS011;6136;47.032;15.398;2022-10-04T10:49:16;1.70;;;1.60;;
12145;SDS011;6136;47.032;15.398;2022-10-04T10:52:13;1.27;;;1.23;;
12145;SDS011;6136;47.032;15.398;2022-10-04T10:55:19;1.52;;;1.42;;
12145;SDS011;6136;47.032;15.398;2022-10-04T11:01:30;2.03;;;1.58;;
12145;SDS011;6136;47.032;15.398;2022-10-04T11:07:32;1.80;;;1.40;;
12145;SDS011;6136;47.032;15.398;2022-10-04T11:10:31;1.45;;;1.35;;
12145;SDS011;6136;47.032;15.398;2022-10-04T11:13:35;1.63;;;1.52;;
12145;SDS011;6136;47.032;15.398;2022-10-04T11:16:50;1.58;;;1.48;;
12145;SDS011;6136;47.032;15.398;2022-10-04T11:25:56;2.97;;;1.60;;
12145;SDS011;6136;47.032;15.398;2022-10-04T11:28:39;1.52;;;1.42;;
12145;SDS011;6136;47.032;15.398;2022-10-04T11:34:28;1.90;;;1.80;;
12145;SDS011;6136;47.032;15.398;2022-10-04T11:37:28;1.50;;;1.40;;
12145;SDS011;6136;47.032;15.398;2022-10-04T11:40:15;2.53;;;1.70;;
12145;SDS011;6136;47.032;15.398;2022-10-04T11:43:01;1.73;;;1.60;;
12145;SDS011;6136;47.032;15.398;2022-10-04T11:45:52;1.70;;;1.60;;
12145;SDS011;6136;47.032;15.398;2022-10-04T11:48:36;1.42;;;1.38;;
12145;SDS011;6136;47.032;15.398;2022-10-04T11:54:38;1.63;;;1.48;;
12145;SDS011;6136;47.032;15.398;2022-10-04T11:57:29;7.63;;;1.83;;
12145;SDS011;6136;47.032;15.398;2022-10-04T12:00:08;2.15;;;1.30;;
12145;SDS011;6136;47.032;15.398;2022-10-04T12:02:53;1.83;;;1.48;;
12145;SDS011;6136;47.032;15.398;2022-10-04T12:08:31;4.68;;;1.73;;
12145;SDS011;6136;47.032;15.398;2022-10-04T12:14:30;1.80;;;1.70;;
12145;SDS011;6136;47.032;15.398;2022-10-04T12:17:19;3.45;;;1.83;;
12145;SDS011;6136;47.032;15.398;2022-10-04T12:20:16;2.38;;;1.85;;
12145;SDS011;6136;47.032;15.398;2022-10-04T12:23:24;1.60;;;1.50;;
12145;SDS011;6136;47.032;15.398;2022-10-04T12:26:26;1.90;;;1.67;;
12145;SDS011;6136;47.032;15.398;2022-10-04T12:29:25;2.40;;;1.77;;
12145;SDS011;6136;47.032;15.398;2022-10-04T12:32:24;2.80;;;1.45;;
12145;SDS011;6136;47.032;15.398;2022-10-04T12:35:00;1.60;;;1.50;;
12145;SDS011;6136;47.032;15.398;2022-10-04T12:37:45;1.50;;;1.40;;
12145;SDS011;6136;47.032;15.398;2022-10-04T12:40:40;1.60;;;1.50;;
12145;SDS011;6136;47.032;15.398;2022-10-04T12:43:15;2.40;;;1.77;;
12145;SDS011;6136;47.032;15.398;2022-10-04T12:45:56;2.03;;;1.35;;
12145;SDS011;6136;47.032;15.398;2022-10-04T12:48:40;1.85;;;1.70;;
12145;SDS011;6136;47.032;15.398;2022-10-04T12:51:20;1.80;;;1.65;;
12145;SDS011;6136;47.032;15.398;2022-10-04T12:54:00;2.75;;;1.67;;
12145;SDS011;6136;47.032;15.398;2022-10-04T12:56:44;2.63;;;1.70;;
12145;SDS011;6136;47.032;15.398;2022-10-04T13:02:13;2.10;;;1.50;;
12145;SDS011;6136;47.032;15.398;2022-10-04T13:04:57;2.90;;;1.63;;
12145;SDS011;6136;47.032;15.398;2022-10-04T13:10:31;8.93;;;1.70;;
12145;SDS011;6136;47.032;15.398;2022-10-04T13:16:27;2.15;;;1.60;;
12145;SDS011;6136;47.032;15.398;2022-10-04T13:19:33;3.17;;;2.03;;
12145;SDS011;6136;47.032;15.398;2022-10-04T13:22:31;1.60;;;1.50;;
12145;SDS011;6136;47.032;15.398;2022-10-04T13:25:32;2.10;;;1.58;;
12145;SDS011;6136;47.032;15.398;2022-10-04T13:28:13;4.05;;;2.15;;
12145;SDS011;6136;47.032;15.398;2022-10-04T13:30:52;3.05;;;1.50;;
12145;SDS011;6136;47.032;15.398;2022-10-04T13:33:28;1.73;;;1.60;;
12145;SDS011;6136;47.032;15.398;2022-10-04T13:36:05;2.88;;;1.80;;
12145;SDS011;6136;47.032;15.398;2022-10-04T13:38:45;3.35;;;1.98;;
12145;SDS011;6136;47.032;15.398;2022-10-04T13:41:42;4.22;;;1.55;;
12145;SDS011;6136;47.032;15.398;2022-10-04T13:44:25;2.40;;;2.17;;
12145;SDS011;6136;47.032;15.398;2022-10-04T13:47:22;1.70;;;1.60;;
12145;SDS011;6136;47.032;15.398;2022-10-04T13:50:06;2.20;;;1.58;;
12145;SDS011;6136;47.032;15.398;2022-10-04T13:52:58;2.38;;;1.67;;
12145;SDS011;6136;47.032;15.398;2022-10-04T13:55:54;1.63;;;1.50;;
12145;SDS011;6136;47.032;15.398;2022-10-04T13:58:45;3.75;;;2.00;;
12145;SDS011;6136;47.032;15.398;2022-10-04T14:04:41;2.15;;;1.65;;
12145;SDS011;6136;47.032;15.398;2022-10-04T14:07:49;1.80;;;1.55;;
12145;SDS011;6136;47.032;15.398;2022-10-04T14:10:35;1.65;;;1.55;;
12145;SDS011;6136;47.032;15.398;2022-10-04T14:13:31;1.80;;;1.52;;
12145;SDS011;6136;47.032;15.398;2022-10-04T14:16:23;3.67;;;1.98;;
12145;SDS011;6136;47.032;15.398;2022-10-04T14:22:27;1.77;;;1.63;;
12145;SDS011;6136;47.032;15.398;2022-10-04T14:25:18;2.35;;;1.88;;
12145;SDS011;6136;47.032;15.398;2022-10-04T14:28:07;1.90;;;1.65;;
12145;SDS011;6136;47.032;15.398;2022-10-04T14:31:11;2.65;;;1.98;;
12145;SDS011;6136;47.032;15.398;2022-10-04T14:34:17;2.13;;;1.70;;
12145;SDS011;6136;47.032;15.398;2022-10-04T14:37:06;2.20;;;1.60;;
12145;SDS011;6136;47.032;15.398;2022-10-04T14:39:58;2.78;;;1.70;;
12145;SDS011;6136;47.032;15.398;2022-10-04T14:43:02;1.85;;;1.75;;
12145;SDS011;6136;47.032;15.398;2022-10-04T14:45:53;2.22;;;1.50;;
12145;SDS011;6136;47.032;15.398;2022-10-04T14:48:37;3.65;;;1.95;;
12145;SDS011;6136;47.032;15.398;2022-10-04T14:51:23;2.97;;;1.75;;
12145;SDS011;6136;47.032;15.398;2022-10-04T14:54:03;2.78;;;1.58;;
12145;SDS011;6136;47.032;15.398;2022-10-04T14:56:41;2.28;;;1.70;;
12145;SDS011;6136;47.032;15.398;2022-10-04T14:59:22;1.80;;;1.70;;
12145;SDS011;6136;47.032;15.398;2022-10-04T15:02:11;3.13;;;1.90;;
12145;SDS011;6136;47.032;15.398;2022-10-04T15:05:00;1.83;;;1.73;;
12145;SDS011;6136;47.032;15.398;2022-10-04T15:07:42;4.40;;;2.50;;
12145;SDS011;6136;47.032;15.398;2022-10-04T15:10:15;2.30;;;1.70;;
12145;SDS011;6136;47.032;15.398;2022-10-04T15:12:58;1.85;;;1.70;;
12145;SDS011;6136;47.032;15.398;2022-10-04T15:18:34;4.90;;;1.85;;
12145;SDS011;6136;47.032;15.398;2022-10-04T15:21:19;1.88;;;1.60;;
12145;SDS011;6136;47.032;15.398;2022-10-04T15:24:11;2.17;;;1.92;;
12145;SDS011;6136;47.032;15.398;2022-10-04T15:26:52;2.55;;;1.80;;
12145;SDS011;6136;47.032;15.398;2022-10-04T15:29:40;1.70;;;1.60;;
12145;SDS011;6136;47.032;15.398;2022-10-04T15:32:21;1.98;;;1.75;;
12145;SDS011;6136;47.032;15.398;2022-10-04T15:35:04;5.38;;;1.70;;
12145;SDS011;6136;47.032;15.398;2022-10-04T15:37:47;1.88;;;1.73;;
12145;SDS011;6136;47.032;15.398;2022-10-04T15:40:23;1.88;;;1.77;;
12145;SDS011;6136;47.032;15.398;2022-10-04T15:43:00;3.03;;;2.13;;
12145;SDS011;6136;47.032;15.398;2022-10-04T15:45:51;3.88;;;1.92;;
12145;SDS011;6136;47.032;15.398;2022-10-04T15:48:35;2.95;;;2.00;;
12145;SDS011;6136;47.032;15.398;2022-10-04T15:51:18;2.75;;;1.98;;
12145;SDS011;6136;47.032;15.398;2022-10-04T15:54:09;5.15;;;2.60;;
12145;SDS011;6136;47.032;15.398;2022-10-04T15:57:00;6.78;;;2.90;;
12145;SDS011;6136;47.032;15.398;2022-10-04T15:59:46;4.73;;;3.20;;
12145;SDS011;6136;47.032;15.398;2022-10-04T16:02:28;7.27;;;3.67;;
12145;SDS011;6136;47.032;15.398;2022-10-04T16:05:11;8.53;;;3.50;;
12145;SDS011;6136;47.032;15.398;2022-10-04T16:07:54;5.10;;;3.20;;
12145;SDS011;6136;47.032;15.398;2022-10-04T16:13:26;4.20;;;3.27;;
12145;SDS011;6136;47.032;15.398;2022-10-04T16:16:23;5.43;;;2.63;;
12145;SDS011;6136;47.032;15.398;2022-10-04T16:19:06;4.63;;;2.60;;
12145;SDS011;6136;47.032;15.398;2022-10-04T16:21:49;5.47;;;2.30;;
12145;SDS011;6136;47.032;15.398;2022-10-04T16:24:27;4.50;;;2.40;;
12145;SDS011;6136;47.032;15.398;2022-10-04T16:30:13;2.87;;;2.47;;
12145;SDS011;6136;47.032;15.398;2022-10-04T16:33:04;6.47;;;2.37;;
12145;SDS011;6136;47.032;15.398;2022-10-04T16:35:42;4.03;;;2.43;;
12145;SDS011;6136;47.032;15.398;2022-10-04T16:38:19;2.80;;;2.27;;
12145;SDS011;6136;47.032;15.398;2022-10-04T16:41:00;2.93;;;2.60;;
12145;SDS011;6136;47.032;15.398;2022-10-04T16:43:37;3.83;;;2.77;;
12145;SDS011;6136;47.032;15.398;2022-10-04T16:46:20;5.27;;;2.87;;
12145;SDS011;6136;47.032;15.398;2022-10-04T16:48:57;8.60;;;2.73;;
12145;SDS011;6136;47.032;15.398;2022-10-04T16:51:38;4.10;;;2.83;;
12145;SDS011;6136;47.032;15.398;2022-10-04T16:57:30;5.67;;;3.40;;
12145;SDS011;6136;47.032;15.398;2022-10-04T16:59:59;3.87;;;3.00;;
12145;SDS011;6136;47.032;15.398;2022-10-04T17:08:47;6.63;;;3.60;;
12145;SDS011;6136;47.032;15.398;2022-10-04T17:11:39;7.40;;;5.37;;
12145;SDS011;6136;47.032;15.398;2022-10-04T17:14:27;9.10;;;3.87;;
12145;SDS011;6136;47.032;15.398;2022-10-04T17:17:17;3.90;;;2.97;;
12145;SDS011;6136;47.032;15.398;2022-10-04T17:19:51;2.60;;;2.40;;
12145;SDS011;6136;47.032;15.398;2022-10-04T17:22:26;4.80;;;2.30;;
12145;SDS011;6136;47.032;15.398;2022-10-04T17:25:11;3.77;;;2.70;;
12145;SDS011;6136;47.032;15.398;2022-10-04T17:27:49;6.73;;;2.57;;
12145;SDS011;6136;47.032;15.398;2022-10-04T17:30:22;4.60;;;2.43;;
12145;SDS011;6136;47.032;15.398;2022-10-04T17:35:59;3.97;;;2.63;;
12145;SDS011;6136;47.032;15.398;2022-10-04T17:38:42;4.10;;;2.57;;
12145;SDS011;6136;47.032;15.398;2022-10-04T17:41:22;2.87;;;2.30;;
12145;SDS011;6136;47.032;15.398;2022-10-04T17:44:05;4.87;;;2.40;;
12145;SDS011;6136;47.032;15.398;2022-10-04T17:46:49;3.60;;;2.93;;
12145;SDS011;6136;47.032;15.398;2022-10-04T17:49:26;5.50;;;2.57;;
12145;SDS011;6136;47.032;15.398;2022-10-04T17:52:22;4.13;;;2.87;;
12145;SDS011;6136;47.032;15.398;2022-10-04T17:55:17;7.23;;;3.07;;
12145;SDS011;6136;47.032;15.398;2022-10-04T17:57:50;4.13;;;3.10;;
12145;SDS011;6136;47.032;15.398;2022-10-04T18:00:22;3.40;;;3.10;;
12145;SDS011;6136;47.032;15.398;2022-10-04T18:02:59;6.40;;;3.37;;
12145;SDS011;6136;47.032;15.398;2022-10-04T18:05:32;4.90;;;4.23;;